Sandy Hook, Connecticut
Current Conditions -  °F | °C
As of 2:55 AM on Friday 24 Oct 2014 (Local Time) from KOXC Reporting Station
Overcast Overcast  
Wind Chill: 40°   Ceiling: 3000
Heat Index: 46°   Visibility: 10mi
Dew Point: 39°   Wind: 16mph
Humidity: 76%   Direction: 340°NNW
Pressure: 29.74"   Gusts: NA
Location:  41.42°N, 73.28°W
Report Text: KOXC 240655Z 34014KT 10SM BKN030 OVC045 08/04 A2974 RMK AO1
Loading
Personal Weather Stations






























Interactive Weather Map
Tropical Storm Tracking
New forecast layout! Learn more

10-Day Weather Forecast

Advertisements
Track Severe Weather on mobile